Time;durP1;ratioP1;P1;durP2;ratioP2;P2;SDS_P1;SDS_P2;PMS_P1;PMS_P2;Temp;Humidity;BMP_temperature;BMP_pressure;BME280_temperature;BME280_humidity;BME280_pressure;Samples;Min_cycle;Max_cycle;Signal;HPM_P1;HPM_P2
2023/03/07 00:01:06;;;;;;;7.63;5.10;;;;;;;;;;5052568;28;20025;-65
2023/03/07 00:03:31;;;;;;;8.00;4.40;;;;;;;;;;5052651;28;20029;-64
2023/03/07 00:06:06;;;;;;;8.13;4.30;;;;;;;;;;5052734;28;20041;-64
2023/03/07 00:08:32;;;;;;;7.10;4.93;;;;;;;;;;5052847;28;20032;-64
2023/03/07 00:11:03;;;;;;;5.80;3.97;;;;;;;;;;5052652;28;20052;-65
2023/03/07 00:13:30;;;;;;;6.22;4.47;;;;;;;;;;5052519;28;20032;-64
2023/03/07 00:16:09;;;;;;;5.53;4.13;;;;;;;;;;5052424;28;20052;-64
2023/03/07 00:18:35;;;;;;;5.30;4.18;;;;;;;;;;5052442;28;20029;-64
2023/03/07 00:21:04;;;;;;;8.68;4.75;;;;;;;;;;5052118;28;20032;-64
2023/03/07 00:23:30;;;;;;;7.28;4.68;;;;;;;;;;5052543;28;20025;-64
2023/03/07 00:26:16;;;;;;;5.28;4.32;;;;;;;;;;5052521;28;20040;-65
2023/03/07 00:28:44;;;;;;;6.80;4.47;;;;;;;;;;5052101;28;20469;-64
2023/03/07 00:31:10;;;;;;;6.30;4.20;;;;;;;;;;5052112;28;20094;-65
2023/03/07 00:33:37;;;;;;;6.75;4.65;;;;;;;;;;5052275;28;20025;-65
2023/03/07 00:36:11;;;;;;;5.32;4.25;;;;;;;;;;5051704;28;20064;-65
2023/03/07 00:38:37;;;;;;;6.25;4.35;;;;;;;;;;5051992;28;20443;-65
2023/03/07 00:41:14;;;;;;;9.05;4.50;;;;;;;;;;5051917;28;20033;-65
2023/03/07 00:43:40;;;;;;;5.63;4.30;;;;;;;;;;5051739;28;20473;-64
2023/03/07 00:46:07;;;;;;;6.10;4.30;;;;;;;;;;5051722;28;20052;-64
2023/03/07 00:48:35;;;;;;;7.35;4.40;;;;;;;;;;5051579;28;20032;-65
2023/03/07 00:51:01;;;;;;;6.85;4.47;;;;;;;;;;5051673;28;20025;-65
2023/03/07 00:53:26;;;;;;;6.63;4.05;;;;;;;;;;5051587;28;20033;-64
2023/03/07 00:56:15;;;;;;;5.82;4.38;;;;;;;;;;5053011;28;20032;-65
2023/03/07 00:58:41;;;;;;;6.57;4.50;;;;;;;;;;5053155;28;20025;-64
2023/03/07 01:01:08;;;;;;;8.07;4.43;;;;;;;;;;5046584;28;20163;-64
2023/03/07 01:03:34;;;;;;;5.18;3.90;;;;;;;;;;5033387;28;20031;-64
2023/03/07 01:06:10;;;;;;;5.05;4.22;;;;;;;;;;5033139;28;20033;-64
2023/03/07 01:08:36;;;;;;;7.15;4.32;;;;;;;;;;5033040;28;20029;-64
2023/03/07 01:11:03;;;;;;;5.43;4.00;;;;;;;;;;5034145;28;20067;-64
2023/03/07 01:13:30;;;;;;;4.93;4.00;;;;;;;;;;5036024;28;20136;-65
2023/03/07 01:16:06;;;;;;;6.70;4.18;;;;;;;;;;5032813;28;20104;-64
2023/03/07 01:18:31;;;;;;;6.95;4.25;;;;;;;;;;5045130;28;20083;-64
2023/03/07 01:20:57;;;;;;;7.25;4.50;;;;;;;;;;5032806;28;20022;-64
2023/03/07 01:23:22;;;;;;;8.65;4.38;;;;;;;;;;5032735;28;20026;-64
2023/03/07 01:25:48;;;;;;;7.15;4.45;;;;;;;;;;5050501;28;20032;-64
2023/03/07 01:28:14;;;;;;;6.50;4.65;;;;;;;;;;5050217;28;20055;-64
2023/03/07 01:30:40;;;;;;;6.82;3.72;;;;;;;;;;5038437;28;20400;-64
2023/03/07 01:33:06;;;;;;;5.95;4.50;;;;;;;;;;5032668;28;20021;-65
2023/03/07 01:35:39;;;;;;;6.05;4.40;;;;;;;;;;5032561;28;20136;-64
2023/03/07 01:38:04;;;;;;;5.40;4.35;;;;;;;;;;5035512;28;20045;-65
2023/03/07 01:40:30;;;;;;;7.35;4.45;;;;;;;;;;5040292;28;20031;-64
2023/03/07 01:43:22;;;;;;;6.90;4.43;;;;;;;;;;5051288;28;20025;-64
2023/03/07 01:45:47;;;;;;;6.13;4.10;;;;;;;;;;5049847;28;20087;-65
2023/03/07 01:48:13;;;;;;;6.57;3.80;;;;;;;;;;5051267;28;20063;-64
2023/03/07 01:50:39;;;;;;;7.60;4.20;;;;;;;;;;5051534;28;20017;-63
2023/03/07 01:53:05;;;;;;;7.30;4.13;;;;;;;;;;5051245;28;20105;-64
2023/03/07 01:55:32;;;;;;;5.47;3.78;;;;;;;;;;5049493;28;20025;-64
2023/03/07 01:58:04;;;;;;;6.40;4.22;;;;;;;;;;5051039;28;20037;-64
2023/03/07 02:00:29;;;;;;;5.55;3.95;;;;;;;;;;5050587;28;20025;-64
2023/03/07 02:03:17;;;;;;;6.40;4.00;;;;;;;;;;5051036;28;20040;-64
2023/03/07 02:05:48;;;;;;;6.68;3.85;;;;;;;;;;5050079;28;20032;-64
2023/03/07 02:08:16;;;;;;;5.90;3.75;;;;;;;;;;5049801;28;20075;-64
2023/03/07 02:10:42;;;;;;;4.28;3.70;;;;;;;;;;5050474;28;20059;-64
2023/03/07 02:13:08;;;;;;;5.80;3.78;;;;;;;;;;5050489;28;20021;-64
2023/03/07 02:15:34;;;;;;;4.82;3.83;;;;;;;;;;5051249;28;20021;-64
2023/03/07 02:18:01;;;;;;;5.78;4.30;;;;;;;;;;5051982;28;20029;-64
2023/03/07 02:20:41;;;;;;;6.00;3.92;;;;;;;;;;5051195;28;20025;-64
2023/03/07 02:23:12;;;;;;;5.88;4.22;;;;;;;;;;5052231;28;20021;-65
2023/03/07 02:26:09;;;;;;;5.68;3.95;;;;;;;;;;5050869;28;20052;-64
2023/03/07 02:28:36;;;;;;;8.50;4.32;;;;;;;;;;5052114;28;20484;-64
2023/03/07 02:31:03;;;;;;;6.20;3.78;;;;;;;;;;5051948;28;20111;-64
2023/03/07 02:33:29;;;;;;;8.65;4.93;;;;;;;;;;5052001;28;20541;-64
2023/03/07 02:35:58;;;;;;;8.00;3.95;;;;;;;;;;5051724;28;20120;-64
2023/03/07 02:38:25;;;;;;;5.35;3.72;;;;;;;;;;5051983;28;20029;-64
2023/03/07 02:40:54;;;;;;;5.57;3.65;;;;;;;;;;5051829;28;20033;-64
2023/03/07 02:43:20;;;;;;;6.63;4.28;;;;;;;;;;5051817;28;20029;-64
2023/03/07 02:45:46;;;;;;;7.30;4.07;;;;;;;;;;5050533;28;20025;-64
2023/03/07 02:48:11;;;;;;;6.20;4.15;;;;;;;;;;5051715;28;20098;-64
2023/03/07 02:50:37;;;;;;;5.95;4.00;;;;;;;;;;5051764;28;20029;-64
2023/03/07 02:53:02;;;;;;;6.07;3.58;;;;;;;;;;5052066;28;20029;-64
2023/03/07 02:55:28;;;;;;;5.93;3.78;;;;;;;;;;5051622;28;20469;-64
2023/03/07 02:57:54;;;;;;;6.05;4.03;;;;;;;;;;5051995;28;20044;-64
2023/03/07 03:00:19;;;;;;;7.05;4.03;;;;;;;;;;5051602;28;20362;-64
2023/03/07 03:02:45;;;;;;;4.97;3.95;;;;;;;;;;5051599;28;20104;-64
2023/03/07 03:05:10;;;;;;;4.90;3.50;;;;;;;;;;5051567;28;20112;-64
2023/03/07 03:07:37;;;;;;;6.95;3.78;;;;;;;;;;5051948;28;20029;-64
2023/03/07 03:10:03;;;;;;;6.43;3.83;;;;;;;;;;5051620;28;20032;-64
2023/03/07 03:12:29;;;;;;;6.03;4.15;;;;;;;;;;5053244;28;20017;-64
2023/03/07 03:14:54;;;;;;;5.57;3.72;;;;;;;;;;5055216;28;20396;-64
2023/03/07 03:17:20;;;;;;;6.20;3.70;;;;;;;;;;5055041;28;20033;-64
2023/03/07 03:19:45;;;;;;;4.88;3.65;;;;;;;;;;5055095;28;20021;-64
2023/03/07 03:22:11;;;;;;;5.85;3.90;;;;;;;;;;5055082;28;20134;-64
2023/03/07 03:24:39;;;;;;;5.07;3.58;;;;;;;;;;5054994;28;20104;-64
2023/03/07 03:27:05;;;;;;;4.55;3.75;;;;;;;;;;5054966;28;20633;-64
2023/03/07 03:29:30;;;;;;;5.75;3.97;;;;;;;;;;5054936;28;20048;-64
2023/03/07 03:31:56;;;;;;;6.10;3.88;;;;;;;;;;5055153;28;20025;-64
2023/03/07 03:34:21;;;;;;;4.32;3.67;;;;;;;;;;5054894;28;20495;-64
2023/03/07 03:36:47;;;;;;;7.00;3.70;;;;;;;;;;5054569;28;20076;-64
2023/03/07 03:39:13;;;;;;;5.25;3.75;;;;;;;;;;5054744;28;20100;-64
2023/03/07 03:41:39;;;;;;;4.40;3.60;;;;;;;;;;5054967;28;20402;-64
2023/03/07 03:44:05;;;;;;;5.80;3.35;;;;;;;;;;5054659;28;20021;-64
2023/03/07 03:46:30;;;;;;;4.72;3.80;;;;;;;;;;5054594;28;20036;-64
2023/03/07 03:48:56;;;;;;;7.40;3.58;;;;;;;;;;5054582;28;20025;-64
2023/03/07 03:51:23;;;;;;;4.07;3.40;;;;;;;;;;5054556;28;20400;-65
2023/03/07 03:53:49;;;;;;;5.40;3.80;;;;;;;;;;5054681;28;20033;-64
2023/03/07 03:56:17;;;;;;;5.13;3.63;;;;;;;;;;5054294;28;20078;-64
2023/03/07 03:58:45;;;;;;;5.07;3.88;;;;;;;;;;5054312;28;20025;-64
2023/03/07 04:01:11;;;;;;;5.47;3.90;;;;;;;;;;5054380;28;20036;-64
2023/03/07 04:03:40;;;;;;;4.82;3.53;;;;;;;;;;5054542;28;20473;-64
2023/03/07 04:06:08;;;;;;;3.78;3.20;;;;;;;;;;5054245;28;20029;-64
2023/03/07 04:08:34;;;;;;;5.07;3.50;;;;;;;;;;5054106;28;20049;-64
2023/03/07 04:11:00;;;;;;;4.60;3.35;;;;;;;;;;5054184;28;20077;-64
2023/03/07 04:13:26;;;;;;;4.95;3.20;;;;;;;;;;5053991;28;20029;-64
2023/03/07 04:15:53;;;;;;;7.97;3.60;;;;;;;;;;5054272;28;20025;-64
2023/03/07 04:18:20;;;;;;;5.82;3.53;;;;;;;;;;5053888;28;20055;-64
2023/03/07 04:20:47;;;;;;;5.95;3.80;;;;;;;;;;5053856;28;20474;-64
2023/03/07 04:23:12;;;;;;;4.40;3.50;;;;;;;;;;5053393;28;20469;-64
2023/03/07 04:25:38;;;;;;;5.28;3.45;;;;;;;;;;5053877;28;20032;-64
2023/03/07 04:28:04;;;;;;;4.97;3.45;;;;;;;;;;5053749;28;20025;-64
2023/03/07 04:30:29;;;;;;;4.60;3.30;;;;;;;;;;5053709;28;20063;-64
2023/03/07 04:32:55;;;;;;;4.68;3.50;;;;;;;;;;5053753;28;20029;-64
2023/03/07 04:35:20;;;;;;;5.43;3.67;;;;;;;;;;5053522;28;20505;-64
2023/03/07 04:37:46;;;;;;;4.57;3.60;;;;;;;;;;5053568;28;20029;-64
2023/03/07 04:40:12;;;;;;;4.13;3.65;;;;;;;;;;5053568;28;20060;-64
2023/03/07 04:42:38;;;;;;;5.15;3.28;;;;;;;;;;5053547;28;20026;-64
2023/03/07 04:45:04;;;;;;;3.85;3.28;;;;;;;;;;5053504;28;20162;-64
2023/03/07 04:47:29;;;;;;;4.72;3.20;;;;;;;;;;5053641;28;20029;-64
2023/03/07 04:49:55;;;;;;;4.25;3.35;;;;;;;;;;5053550;28;20029;-64
2023/03/07 04:52:21;;;;;;;5.18;3.33;;;;;;;;;;5053471;28;20029;-64
2023/03/07 04:54:46;;;;;;;4.60;3.60;;;;;;;;;;5053669;28;20048;-64
2023/03/07 04:57:12;;;;;;;5.38;3.70;;;;;;;;;;5053218;28;20033;-64
2023/03/07 04:59:38;;;;;;;3.72;3.10;;;;;;;;;;5053273;28;20400;-64
2023/03/07 05:02:10;;;;;;;4.18;3.25;;;;;;;;;;5053120;28;20435;-64
2023/03/07 05:04:36;;;;;;;5.47;3.40;;;;;;;;;;5053112;28;20477;-64
2023/03/07 05:07:02;;;;;;;4.53;3.40;;;;;;;;;;5053066;28;20064;-65
2023/03/07 05:09:28;;;;;;;6.43;3.92;;;;;;;;;;5053249;28;20054;-64
2023/03/07 05:11:53;;;;;;;3.97;3.33;;;;;;;;;;5052980;28;20461;-64
2023/03/07 05:14:19;;;;;;;4.57;3.20;;;;;;;;;;5051708;28;20033;-64
2023/03/07 05:16:44;;;;;;;5.45;3.40;;;;;;;;;;5052836;28;20074;-64
2023/03/07 05:19:12;;;;;;;4.60;3.28;;;;;;;;;;5052796;28;20120;-64
2023/03/07 05:21:39;;;;;;;5.97;3.70;;;;;;;;;;5053100;28;20092;-65
2023/03/07 05:24:06;;;;;;;4.05;3.20;;;;;;;;;;5052728;28;20044;-65
2023/03/07 05:26:32;;;;;;;4.00;3.13;;;;;;;;;;5053054;28;20033;-64
2023/03/07 05:28:57;;;;;;;6.55;3.60;;;;;;;;;;5052660;28;20048;-65
2023/03/07 05:31:23;;;;;;;5.28;3.38;;;;;;;;;;5052657;28;20087;-65
2023/03/07 05:33:49;;;;;;;4.68;3.47;;;;;;;;;;5052485;28;20151;-65
2023/03/07 05:36:16;;;;;;;6.97;3.45;;;;;;;;;;5052148;28;20440;-65
2023/03/07 05:38:42;;;;;;;4.53;3.78;;;;;;;;;;5052808;28;20021;-65
2023/03/07 05:41:08;;;;;;;4.40;3.40;;;;;;;;;;5052672;28;20029;-65
2023/03/07 05:43:33;;;;;;;4.30;3.35;;;;;;;;;;5051020;28;20053;-64
2023/03/07 05:45:59;;;;;;;4.05;3.20;;;;;;;;;;5052301;28;20497;-65
2023/03/07 05:48:25;;;;;;;4.88;3.40;;;;;;;;;;5052356;28;20029;-65
2023/03/07 05:50:50;;;;;;;5.30;3.70;;;;;;;;;;5052277;28;20044;-64
2023/03/07 05:53:16;;;;;;;4.15;3.22;;;;;;;;;;5052513;28;20021;-64
2023/03/07 05:55:42;;;;;;;5.55;3.78;;;;;;;;;;5052400;28;20491;-66
2023/03/07 05:58:08;;;;;;;4.95;3.30;;;;;;;;;;5052177;28;20495;-66
2023/03/07 06:00:33;;;;;;;5.30;3.70;;;;;;;;;;5052260;28;20029;-66
2023/03/07 06:03:02;;;;;;;4.30;3.20;;;;;;;;;;5052126;28;20480;-66
2023/03/07 06:05:28;;;;;;;5.75;3.40;;;;;;;;;;5052430;28;20021;-66
2023/03/07 06:07:54;;;;;;;5.15;3.55;;;;;;;;;;5052178;28;20496;-66
2023/03/07 06:10:20;;;;;;;4.60;3.35;;;;;;;;;;5052197;28;20020;-65
2023/03/07 06:12:52;;;;;;;4.25;3.53;;;;;;;;;;5052399;28;20074;-65
2023/03/07 06:15:20;;;;;;;4.40;3.45;;;;;;;;;;5052306;28;20600;-65
2023/03/07 06:17:45;;;;;;;4.00;3.60;;;;;;;;;;5051997;28;20362;-64
2023/03/07 06:20:11;;;;;;;5.38;3.53;;;;;;;;;;5051988;28;20029;-64
2023/03/07 06:22:38;;;;;;;6.10;4.28;;;;;;;;;;5050692;28;20532;-64
2023/03/07 06:25:05;;;;;;;5.47;3.90;;;;;;;;;;5050820;28;20155;-64
2023/03/07 06:27:35;;;;;;;5.88;3.50;;;;;;;;;;5050886;28;20071;-64
2023/03/07 06:30:02;;;;;;;4.65;3.58;;;;;;;;;;5053396;28;20031;-65
2023/03/07 06:32:29;;;;;;;5.13;3.83;;;;;;;;;;5050713;28;20354;-65
2023/03/07 06:34:55;;;;;;;5.40;3.80;;;;;;;;;;5052496;28;20032;-65
2023/03/07 06:37:21;;;;;;;4.38;3.42;;;;;;;;;;5052947;28;20361;-65
2023/03/07 06:39:46;;;;;;;5.68;3.63;;;;;;;;;;5053629;28;20055;-65
2023/03/07 06:42:14;;;;;;;5.07;3.03;;;;;;;;;;5052976;28;20017;-65
2023/03/07 06:44:40;;;;;;;3.75;3.33;;;;;;;;;;5052264;28;20021;-65
2023/03/07 06:47:05;;;;;;;5.53;3.67;;;;;;;;;;5054816;28;20522;-64
2023/03/07 06:49:31;;;;;;;4.53;3.50;;;;;;;;;;5055731;28;20025;-64
2023/03/07 06:51:57;;;;;;;4.13;3.42;;;;;;;;;;5055875;28;20025;-65
2023/03/07 06:54:22;;;;;;;5.10;3.58;;;;;;;;;;5055588;28;20021;-64
2023/03/07 06:56:48;;;;;;;3.78;3.28;;;;;;;;;;5055873;28;20108;-65
2023/03/07 06:59:14;;;;;;;4.95;3.65;;;;;;;;;;5055506;28;20024;-65
2023/03/07 07:01:40;;;;;;;5.88;3.75;;;;;;;;;;5054416;28;20390;-65
2023/03/07 07:04:06;;;;;;;3.80;3.40;;;;;;;;;;5055485;28;20036;-64
2023/03/07 07:06:31;;;;;;;4.00;3.17;;;;;;;;;;5055519;28;20021;-65
2023/03/07 07:08:58;;;;;;;5.05;3.45;;;;;;;;;;5055284;28;20025;-64
2023/03/07 07:11:24;;;;;;;4.18;3.50;;;;;;;;;;5055138;28;20025;-64
2023/03/07 07:13:50;;;;;;;5.10;3.58;;;;;;;;;;5055524;28;20033;-64
2023/03/07 07:16:16;;;;;;;4.13;3.38;;;;;;;;;;5054988;28;20473;-64
2023/03/07 07:18:43;;;;;;;5.18;3.50;;;;;;;;;;5055048;28;20538;-64
2023/03/07 07:21:09;;;;;;;4.90;3.83;;;;;;;;;;5053800;28;20072;-65
2023/03/07 07:23:34;;;;;;;3.90;3.50;;;;;;;;;;5050724;28;20033;-65
2023/03/07 07:26:00;;;;;;;3.92;3.53;;;;;;;;;;5068051;28;20039;-65
2023/03/07 07:28:26;;;;;;;5.57;3.55;;;;;;;;;;5054164;28;20060;-64
2023/03/07 07:30:52;;;;;;;4.13;3.40;;;;;;;;;;5051208;28;20040;-65
2023/03/07 07:33:18;;;;;;;3.97;3.53;;;;;;;;;;5051464;28;20017;-65
2023/03/07 07:35:44;;;;;;;3.88;3.28;;;;;;;;;;5053360;28;20044;-65
2023/03/07 07:38:10;;;;;;;3.70;3.20;;;;;;;;;;5053615;28;20189;-65
2023/03/07 07:40:35;;;;;;;4.45;3.50;;;;;;;;;;5050827;28;20021;-65
2023/03/07 07:43:01;;;;;;;4.63;3.65;;;;;;;;;;5052178;28;20362;-64
2023/03/07 07:45:27;;;;;;;4.15;3.15;;;;;;;;;;5054121;28;20417;-65
2023/03/07 07:47:52;;;;;;;3.78;3.30;;;;;;;;;;5053002;28;20036;-64
2023/03/07 07:50:20;;;;;;;4.40;3.63;;;;;;;;;;5051544;28;20125;-65
2023/03/07 07:52:46;;;;;;;4.38;3.50;;;;;;;;;;5049125;28;20067;-67
2023/03/07 07:55:14;;;;;;;5.57;4.22;;;;;;;;;;5052698;28;20060;-65
2023/03/07 07:57:40;;;;;;;12.52;8.13;;;;;;;;;;5051798;28;20045;-64
2023/03/07 08:00:09;;;;;;;13.80;7.60;;;;;;;;;;5052975;28;20469;-64
2023/03/07 08:02:35;;;;;;;14.18;9.68;;;;;;;;;;5052746;28;20047;-64
2023/03/07 08:05:01;;;;;;;10.07;7.53;;;;;;;;;;5051687;28;20032;-65
2023/03/07 08:07:26;;;;;;;8.38;5.82;;;;;;;;;;5053366;28;20091;-64
2023/03/07 08:09:52;;;;;;;5.35;4.18;;;;;;;;;;5052608;28;20477;-64
2023/03/07 08:12:17;;;;;;;6.13;5.20;;;;;;;;;;5052905;28;20033;-64
2023/03/07 08:14:43;;;;;;;5.72;5.00;;;;;;;;;;5053021;28;20033;-64
2023/03/07 08:17:09;;;;;;;7.50;5.40;;;;;;;;;;5052788;28;20044;-64
2023/03/07 08:19:35;;;;;;;9.32;4.53;;;;;;;;;;5053073;28;20041;-64
2023/03/07 08:22:01;;;;;;;8.20;5.07;;;;;;;;;;5052389;28;20504;-64
2023/03/07 08:24:27;;;;;;;7.20;4.88;;;;;;;;;;5052716;28;20384;-64
2023/03/07 08:26:52;;;;;;;6.78;4.57;;;;;;;;;;5052807;28;20128;-64
2023/03/07 08:29:18;;;;;;;6.75;5.00;;;;;;;;;;5052249;28;20102;-64
2023/03/07 08:31:50;;;;;;;6.18;4.82;;;;;;;;;;5050988;28;20028;-64
2023/03/07 08:34:16;;;;;;;6.35;5.18;;;;;;;;;;5043268;28;20021;-65
2023/03/07 08:36:41;;;;;;;6.70;5.28;;;;;;;;;;5041111;28;20072;-65
2023/03/07 08:39:07;;;;;;;7.20;5.05;;;;;;;;;;5032371;28;20037;-65
2023/03/07 08:41:33;;;;;;;5.65;4.90;;;;;;;;;;5033147;28;20465;-64
2023/03/07 08:43:58;;;;;;;5.20;4.55;;;;;;;;;;5044003;28;20075;-64
2023/03/07 08:46:24;;;;;;;5.55;4.55;;;;;;;;;;5048978;28;20024;-65
2023/03/07 08:48:49;;;;;;;4.93;4.43;;;;;;;;;;5049270;28;20094;-64
2023/03/07 08:51:16;;;;;;;6.43;4.93;;;;;;;;;;5051709;28;20043;-65
2023/03/07 08:53:43;;;;;;;7.30;5.05;;;;;;;;;;5051691;28;20024;-64
2023/03/07 08:56:11;;;;;;;6.75;4.88;;;;;;;;;;5051857;28;20389;-64
2023/03/07 08:58:37;;;;;;;5.88;4.30;;;;;;;;;;5052698;28;20668;-65
2023/03/07 09:01:05;;;;;;;5.80;4.72;;;;;;;;;;5054368;28;20072;-64
2023/03/07 09:03:30;;;;;;;7.53;4.65;;;;;;;;;;5052888;28;20440;-64
2023/03/07 09:05:56;;;;;;;14.32;5.00;;;;;;;;;;5052317;28;20545;-64
2023/03/07 09:08:22;;;;;;;5.60;4.65;;;;;;;;;;5051737;28;20031;-64
2023/03/07 09:10:47;;;;;;;5.82;4.60;;;;;;;;;;5052592;28;20028;-64
2023/03/07 09:13:13;;;;;;;6.32;4.88;;;;;;;;;;5051896;28;20029;-65
2023/03/07 09:15:39;;;;;;;6.70;4.25;;;;;;;;;;5051827;28;20029;-65
2023/03/07 09:18:06;;;;;;;5.28;4.35;;;;;;;;;;5051996;28;20029;-65
2023/03/07 09:20:31;;;;;;;5.28;4.53;;;;;;;;;;5051413;28;20059;-65
2023/03/07 09:22:57;;;;;;;7.22;4.55;;;;;;;;;;5051560;28;20048;-64
2023/03/07 09:25:23;;;;;;;5.88;4.70;;;;;;;;;;5052247;28;20461;-64
2023/03/07 09:27:49;;;;;;;7.95;4.85;;;;;;;;;;5051610;28;20028;-64
2023/03/07 09:30:15;;;;;;;6.20;4.25;;;;;;;;;;5049978;28;20560;-65
2023/03/07 09:32:41;;;;;;;6.15;4.40;;;;;;;;;;5051146;28;20036;-65
2023/03/07 09:35:07;;;;;;;6.00;4.47;;;;;;;;;;5051274;28;20060;-64
2023/03/07 09:37:33;;;;;;;7.28;4.80;;;;;;;;;;5050678;28;20065;-64
2023/03/07 09:40:01;;;;;;;7.68;4.28;;;;;;;;;;5050396;28;20386;-65
2023/03/07 09:42:33;;;;;;;7.88;4.97;;;;;;;;;;5051819;28;20028;-64
2023/03/07 09:45:10;;;;;;;5.10;3.83;;;;;;;;;;5051358;28;20115;-64
2023/03/07 09:47:56;;;;;;;6.13;4.50;;;;;;;;;;5050952;28;20033;-65
2023/03/07 09:50:50;;;;;;;4.28;3.88;;;;;;;;;;5051827;28;20171;-64
2023/03/07 09:53:24;;;;;;;4.97;4.10;;;;;;;;;;5052509;28;20025;-64
2023/03/07 09:55:53;;;;;;;7.47;4.53;;;;;;;;;;5051128;28;20060;-64
2023/03/07 09:58:22;;;;;;;6.80;4.65;;;;;;;;;;5051357;28;20370;-65
2023/03/07 10:00:55;;;;;;;5.32;4.18;;;;;;;;;;5051184;28;20044;-64
2023/03/07 10:03:26;;;;;;;5.95;4.60;;;;;;;;;;5050807;28;20658;-65
2023/03/07 10:05:58;;;;;;;5.57;4.22;;;;;;;;;;5050753;28;20111;-64
2023/03/07 10:08:33;;;;;;;6.65;4.30;;;;;;;;;;5050888;28;20086;-64
2023/03/07 10:11:07;;;;;;;5.15;4.63;;;;;;;;;;5041622;28;20369;-64
2023/03/07 10:14:05;;;;;;;6.22;4.55;;;;;;;;;;5030762;28;20025;-64
2023/03/07 10:16:30;;;;;;;6.20;4.25;;;;;;;;;;5030535;28;20029;-64
2023/03/07 10:19:17;;;;;;;6.05;3.88;;;;;;;;;;5031142;28;20032;-64
2023/03/07 10:21:57;;;;;;;4.47;4.00;;;;;;;;;;5039163;28;20469;-64
2023/03/07 10:24:53;;;;;;;6.95;4.43;;;;;;;;;;5050880;28;20111;-64
2023/03/07 10:27:24;;;;;;;4.75;4.00;;;;;;;;;;5055284;28;20032;-64
2023/03/07 10:29:53;;;;;;;4.55;4.10;;;;;;;;;;5051944;28;20429;-64
2023/03/07 10:32:35;;;;;;;4.97;4.07;;;;;;;;;;5053589;28;20056;-65
2023/03/07 10:35:10;;;;;;;7.22;4.00;;;;;;;;;;5054026;28;20416;-64
2023/03/07 10:37:50;;;;;;;5.63;4.05;;;;;;;;;;5054494;28;20037;-65
2023/03/07 10:40:33;;;;;;;23.08;5.60;;;;;;;;;;5054422;28;20044;-65
2023/03/07 10:42:59;;;;;;;51.47;6.65;;;;;;;;;;5048080;28;20080;-65
2023/03/07 10:45:33;;;;;;;21.92;4.97;;;;;;;;;;5034292;28;20024;-65
2023/03/07 10:48:06;;;;;;;27.33;4.97;;;;;;;;;;5034325;28;20444;-64
2023/03/07 10:50:34;;;;;;;28.33;5.00;;;;;;;;;;5034283;28;20113;-64
2023/03/07 10:53:03;;;;;;;20.40;4.75;;;;;;;;;;5033835;28;20421;-65
2023/03/07 10:55:39;;;;;;;17.95;4.40;;;;;;;;;;5050515;28;20029;-64
2023/03/07 10:58:22;;;;;;;34.30;5.45;;;;;;;;;;5053882;28;20400;-64
2023/03/07 11:01:05;;;;;;;17.70;4.50;;;;;;;;;;5052158;28;20082;-63
2023/03/07 11:03:45;;;;;;;18.42;5.40;;;;;;;;;;5053866;28;20467;-64
2023/03/07 11:06:49;;;;;;;18.67;4.22;;;;;;;;;;5053914;28;20501;-64
2023/03/07 11:09:32;;;;;;;12.80;3.90;;;;;;;;;;5049372;28;20401;-63
2023/03/07 11:12:04;;;;;;;21.92;5.10;;;;;;;;;;5049752;28;20060;-63
2023/03/07 11:14:56;;;;;;;14.57;4.32;;;;;;;;;;5053557;28;20053;-63
2023/03/07 11:17:38;;;;;;;10.98;4.50;;;;;;;;;;5053317;28;20037;-65
2023/03/07 11:20:19;;;;;;;15.30;4.90;;;;;;;;;;5053871;28;20048;-64
2023/03/07 11:22:45;;;;;;;15.50;4.45;;;;;;;;;;5047666;28;20033;-64
2023/03/07 11:25:17;;;;;;;11.05;4.32;;;;;;;;;;5039224;28;20564;-64
2023/03/07 11:27:45;;;;;;;10.73;4.22;;;;;;;;;;5033545;28;20033;-64
2023/03/07 11:30:39;;;;;;;13.70;4.63;;;;;;;;;;5034291;28;20465;-64
2023/03/07 11:33:20;;;;;;;12.80;5.05;;;;;;;;;;5051059;28;20028;-64
2023/03/07 11:35:57;;;;;;;13.80;4.43;;;;;;;;;;5053509;28;20045;-64
2023/03/07 11:38:35;;;;;;;8.02;4.22;;;;;;;;;;5053564;28;20029;-64
2023/03/07 11:41:00;;;;;;;9.63;4.57;;;;;;;;;;5053434;28;20052;-64
2023/03/07 11:43:41;;;;;;;7.70;4.38;;;;;;;;;;5053524;28;20029;-65
2023/03/07 11:46:21;;;;;;;11.00;4.38;;;;;;;;;;5052340;28;20500;-65
2023/03/07 11:49:11;;;;;;;12.65;4.22;;;;;;;;;;5052599;28;20025;-64
2023/03/07 11:51:54;;;;;;;10.02;5.18;;;;;;;;;;5036245;28;20101;-64
2023/03/07 11:54:35;;;;;;;7.05;3.85;;;;;;;;;;5033137;28;20025;-65
2023/03/07 11:57:27;;;;;;;11.15;4.00;;;;;;;;;;5032969;28;20033;-65
2023/03/07 12:00:11;;;;;;;7.95;3.90;;;;;;;;;;5033816;28;20382;-65
2023/03/07 12:03:03;;;;;;;10.60;4.13;;;;;;;;;;5050132;28;20480;-65
2023/03/07 12:05:35;;;;;;;7.82;3.78;;;;;;;;;;5066822;28;20377;-65
2023/03/07 12:08:38;;;;;;;7.40;3.63;;;;;;;;;;5052834;28;20025;-65
2023/03/07 12:11:12;;;;;;;8.85;4.28;;;;;;;;;;5031555;28;20033;-63
2023/03/07 12:14:11;;;;;;;7.47;3.80;;;;;;;;;;5051731;28;20031;-65
2023/03/07 12:17:11;;;;;;;14.50;4.45;;;;;;;;;;5045497;28;20037;-65
2023/03/07 12:19:56;;;;;;;8.82;4.28;;;;;;;;;;5047694;28;20064;-65
2023/03/07 12:22:33;;;;;;;6.20;3.75;;;;;;;;;;5051955;28;20033;-65
2023/03/07 12:25:10;;;;;;;7.97;4.10;;;;;;;;;;5050845;28;20029;-65
2023/03/07 12:27:46;;;;;;;7.55;4.47;;;;;;;;;;5051991;28;20090;-65
2023/03/07 12:30:29;;;;;;;7.63;4.03;;;;;;;;;;5052680;28;20028;-65
2023/03/07 12:32:55;;;;;;;8.30;3.78;;;;;;;;;;5052392;28;20112;-65
2023/03/07 12:35:29;;;;;;;7.00;4.45;;;;;;;;;;5051509;28;20055;-65
2023/03/07 12:38:08;;;;;;;7.75;3.88;;;;;;;;;;5052010;28;20036;-65
2023/03/07 12:40:40;;;;;;;6.38;3.95;;;;;;;;;;5052118;28;20025;-65
2023/03/07 12:43:24;;;;;;;8.13;3.55;;;;;;;;;;5052148;28;20037;-65
2023/03/07 12:46:02;;;;;;;6.95;4.43;;;;;;;;;;5052147;28;20083;-65
2023/03/07 12:49:02;;;;;;;12.80;4.10;;;;;;;;;;5051903;28;20032;-65
2023/03/07 12:51:35;;;;;;;7.72;3.70;;;;;;;;;;5051854;28;20071;-65
2023/03/07 12:54:09;;;;;;;7.15;4.00;;;;;;;;;;5051886;28;20330;-65
2023/03/07 12:56:49;;;;;;;7.72;3.72;;;;;;;;;;5052044;28;20082;-64
2023/03/07 12:59:15;;;;;;;7.10;3.95;;;;;;;;;;5052465;28;20079;-65
2023/03/07 13:01:59;;;;;;;8.85;3.80;;;;;;;;;;5051836;28;20063;-65
2023/03/07 13:04:36;;;;;;;9.02;3.88;;;;;;;;;;5052119;28;20036;-65
2023/03/07 13:07:16;;;;;;;6.03;3.67;;;;;;;;;;5050343;28;20060;-65
2023/03/07 13:09:47;;;;;;;7.57;3.50;;;;;;;;;;5050372;28;20028;-65
2023/03/07 13:12:19;;;;;;;4.88;3.40;;;;;;;;;;5051545;28;20102;-65
2023/03/07 13:14:45;;;;;;;6.20;3.83;;;;;;;;;;5051511;28;20029;-65
2023/03/07 13:17:34;;;;;;;7.30;3.90;;;;;;;;;;5051584;28;20025;-65
2023/03/07 13:19:59;;;;;;;5.28;3.17;;;;;;;;;;5066649;28;20020;-65
2023/03/07 13:22:25;;;;;;;7.07;3.67;;;;;;;;;;5048972;28;20777;-65
2023/03/07 13:24:52;;;;;;;7.72;3.60;;;;;;;;;;5032815;28;20040;-65
2023/03/07 13:27:22;;;;;;;12.45;4.30;;;;;;;;;;5044570;28;20426;-65
2023/03/07 13:30:06;;;;;;;;;;;;;;;;;;5041802;28;20469;-65
2023/03/07 13:32:47;;;;;;;5.85;3.47;;;;;;;;;;5033347;28;20380;-65
2023/03/07 13:35:37;;;;;;;11.85;4.05;;;;;;;;;;5041880;28;20053;-65
2023/03/07 13:38:29;;;;;;;6.82;4.00;;;;;;;;;;5031136;28;20072;-64
2023/03/07 13:40:57;;;;;;;5.68;3.75;;;;;;;;;;5038272;28;20029;-65
2023/03/07 13:43:22;;;;;;;5.60;3.78;;;;;;;;;;5051058;28;20147;-65
2023/03/07 13:45:51;;;;;;;5.57;3.90;;;;;;;;;;5038995;28;20033;-65
2023/03/07 13:48:29;;;;;;;7.63;3.70;;;;;;;;;;5030636;28;20033;-64
2023/03/07 13:50:54;;;;;;;7.22;3.55;;;;;;;;;;5031183;28;20034;-64
2023/03/07 13:53:32;;;;;;;8.30;4.25;;;;;;;;;;5031026;28;20099;-64
2023/03/07 13:56:09;;;;;;;6.95;3.63;;;;;;;;;;5034661;28;20025;-65
2023/03/07 13:58:45;;;;;;;4.63;3.65;;;;;;;;;;5045921;28;20045;-64
2023/03/07 14:01:20;;;;;;;4.55;3.80;;;;;;;;;;5050872;28;20054;-64
2023/03/07 14:03:50;;;;;;;4.60;3.30;;;;;;;;;;5050853;28;20528;-64
2023/03/07 14:06:22;;;;;;;9.60;3.45;;;;;;;;;;5050872;28;20496;-64
2023/03/07 14:08:49;;;;;;;7.97;4.13;;;;;;;;;;5050834;28;20483;-65
2023/03/07 14:11:26;;;;;;;7.50;4.03;;;;;;;;;;5050876;28;20496;-64
2023/03/07 14:14:23;;;;;;;7.53;3.70;;;;;;;;;;5050954;28;20116;-65
2023/03/07 14:16:56;;;;;;;5.22;3.55;;;;;;;;;;5049669;28;20060;-65
2023/03/07 14:19:47;;;;;;;7.78;4.07;;;;;;;;;;5049306;28;20033;-65
2023/03/07 14:22:20;;;;;;;6.93;4.00;;;;;;;;;;5049086;28;20033;-65
2023/03/07 14:25:06;;;;;;;5.80;4.00;;;;;;;;;;5050594;28;20117;-64
2023/03/07 14:27:48;;;;;;;5.28;3.72;;;;;;;;;;5050594;28;20485;-64
2023/03/07 14:30:15;;;;;;;6.65;3.80;;;;;;;;;;5050524;28;20037;-64
2023/03/07 14:32:40;;;;;;;9.35;3.58;;;;;;;;;;5050687;28;20029;-64
2023/03/07 14:35:07;;;;;;;8.95;3.83;;;;;;;;;;5049212;28;20460;-64
2023/03/07 14:37:33;;;;;;;4.60;3.67;;;;;;;;;;5050229;28;20025;-64
2023/03/07 14:39:58;;;;;;;8.23;4.07;;;;;;;;;;5050266;28;20040;-65
2023/03/07 14:42:27;;;;;;;5.68;3.88;;;;;;;;;;5050377;28;20060;-64
2023/03/07 14:45:08;;;;;;;7.88;4.32;;;;;;;;;;5050459;28;20052;-65
2023/03/07 14:47:55;;;;;;;6.28;3.60;;;;;;;;;;5050405;28;20025;-64
2023/03/07 14:50:25;;;;;;;7.63;3.70;;;;;;;;;;5038171;28;20032;-64
2023/03/07 14:52:57;;;;;;;4.32;3.90;;;;;;;;;;5030761;28;20031;-64
2023/03/07 14:55:27;;;;;;;8.27;3.50;;;;;;;;;;5033924;28;20060;-65
2023/03/07 14:57:53;;;;;;;9.25;4.57;;;;;;;;;;5064093;28;20380;-65
2023/03/07 15:00:27;;;;;;;7.60;3.90;;;;;;;;;;5047486;28;20351;-65
2023/03/07 15:03:06;;;;;;;6.13;3.55;;;;;;;;;;5049078;28;20032;-65